createdAt,value
2023-08-07T00:00:27.661Z,96390.91
2023-08-07T00:02:55.291Z,96384.44
2023-08-07T00:05:23.237Z,96395.31
2023-08-07T00:07:51.027Z,96392.88
2023-08-07T00:10:18.699Z,96388.66
2023-08-07T00:12:46.581Z,96391.28
2023-08-07T00:15:14.303Z,96403.53
2023-08-07T00:17:43.242Z,96406.16
2023-08-07T00:20:11.393Z,96398.50
2023-08-07T00:22:38.962Z,96395.06
2023-08-07T00:25:07.210Z,96404.13
2023-08-07T00:27:34.842Z,96401.09
2023-08-07T00:30:02.435Z,96391.81
2023-08-07T00:32:30.039Z,96399.66
2023-08-07T00:34:58.996Z,96403.31
2023-08-07T00:37:26.611Z,96397.66
2023-08-07T00:39:54.165Z,96382.81
2023-08-07T00:42:21.693Z,96390.44
2023-08-07T00:44:49.295Z,96388.66
2023-08-07T00:47:17.036Z,96401.31
2023-08-07T00:49:44.710Z,96393.66
2023-08-07T00:52:14.156Z,96400.25
2023-08-07T00:54:41.820Z,96400.47
2023-08-07T00:57:13.729Z,96409.50
2023-08-07T00:59:41.988Z,96407.47
2023-08-07T01:02:10.975Z,96414.06
2023-08-07T01:04:38.570Z,96416.44
2023-08-07T01:07:06.788Z,96418.63
2023-08-07T01:09:36.027Z,96420.66
2023-08-07T01:12:12.851Z,96418.84
2023-08-07T01:14:51.526Z,96411.63
2023-08-07T01:17:22.511Z,96416.44
2023-08-07T01:19:52.209Z,96422.88
2023-08-07T01:22:21.789Z,96435.75
2023-08-07T01:24:50.966Z,96430.91
2023-08-07T01:27:43.974Z,96417.03
2023-08-07T01:30:14.801Z,96428.28
2023-08-07T01:32:49.622Z,96427.47
2023-08-07T01:35:19.590Z,96430.09
2023-08-07T01:37:50.130Z,96430.91
2023-08-07T01:40:19.196Z,96424.88
2023-08-07T01:42:48.383Z,96429.31
2023-08-07T01:45:15.999Z,96427.66
2023-08-07T01:47:43.615Z,96427.47
2023-08-07T01:50:11.311Z,96431.34
2023-08-07T01:52:38.913Z,96440.63
2023-08-07T01:55:08.558Z,96437.00
2023-08-07T01:57:36.127Z,96441.84
2023-08-07T02:00:04.860Z,96435.00
2023-08-07T02:02:32.504Z,96442.66
2023-08-07T02:05:00.182Z,96447.28
2023-08-07T02:07:28.835Z,96431.22
2023-08-07T02:09:56.394Z,96429.16
2023-08-07T02:12:25.735Z,96428.53
2023-08-07T02:14:53.460Z,96432.13
2023-08-07T02:17:22.896Z,96433.16
2023-08-07T02:19:50.526Z,96441.97
2023-08-07T02:22:18.201Z,96438.75
2023-08-07T02:24:45.758Z,96437.13
2023-08-07T02:27:13.310Z,96440.16
2023-08-07T02:29:42.276Z,96442.97
2023-08-07T02:32:09.914Z,96443.56
2023-08-07T02:34:37.556Z,96440.13
2023-08-07T02:37:05.619Z,96447.59
2023-08-07T02:39:33.822Z,96444.75
2023-08-07T02:42:01.700Z,96453.44
2023-08-07T02:44:29.285Z,96451.81
2023-08-07T02:46:58.496Z,96451.19
2023-08-07T02:49:26.320Z,96450.56
2023-08-07T02:51:53.997Z,96452.16
2023-08-07T02:54:21.700Z,96460.94
2023-08-07T02:56:49.987Z,96460.53
2023-08-07T02:59:17.636Z,96462.94
2023-08-07T03:01:46.059Z,96461.97
2023-08-07T03:04:15.041Z,96473.22
2023-08-07T03:06:42.613Z,96460.34
2023-08-07T03:09:10.254Z,96462.94
2023-08-07T03:11:37.826Z,96459.72
2023-08-07T03:14:05.470Z,96458.47
2023-08-07T03:16:33.085Z,96468.13
2023-08-07T03:19:00.675Z,96475.34
2023-08-07T03:21:29.583Z,96476.19
2023-08-07T03:23:57.147Z,96474.53
2023-08-07T03:26:24.727Z,96474.53
2023-08-07T03:28:52.349Z,96482.56
2023-08-07T03:31:19.952Z,96488.22
2023-08-07T03:33:47.583Z,96489.81
2023-08-07T03:36:15.233Z,96494.66
2023-08-07T03:38:44.213Z,96496.47
2023-08-07T03:41:11.831Z,96497.63
2023-08-07T03:43:39.452Z,96500.06
2023-08-07T03:46:07.040Z,96509.53
2023-08-07T03:48:34.682Z,96507.88
2023-08-07T03:51:06.144Z,96512.31
2023-08-07T03:53:33.757Z,96522.38
2023-08-07T03:56:02.683Z,96516.34
2023-08-07T03:58:30.318Z,96517.53
2023-08-07T04:00:58.162Z,96516.72
2023-08-07T04:03:25.785Z,96517.16
2023-08-07T04:05:55.306Z,96518.56
2023-08-07T04:08:22.969Z,96525.25
2023-08-07T04:10:59.860Z,96515.94
2023-08-07T04:13:29.747Z,96513.97
2023-08-07T04:15:57.633Z,96515.59
2023-08-07T04:18:25.399Z,96518.81
2023-08-07T04:20:54.572Z,96528.03
2023-08-07T04:23:22.496Z,96524.81
2023-08-07T04:25:50.869Z,96519.75
2023-08-07T04:28:18.857Z,96518.97
2023-08-07T04:30:51.871Z,96519.97
2023-08-07T04:33:19.618Z,96523.56
2023-08-07T04:35:47.731Z,96519.97
2023-08-07T04:38:15.528Z,96524.38
2023-08-07T04:40:47.391Z,96523.56
2023-08-07T04:43:15.408Z,96530.41
2023-08-07T04:45:43.438Z,96526.00
2023-08-07T04:48:12.834Z,96532.59
2023-08-07T04:50:40.612Z,96532.41
2023-08-07T04:53:08.433Z,96535.19
2023-08-07T04:55:36.040Z,96538.25
2023-08-07T04:58:03.857Z,96541.50
2023-08-07T05:00:31.543Z,96546.31
2023-08-07T05:02:59.472Z,96555.75
2023-08-07T05:05:29.516Z,96556.78
2023-08-07T05:07:59.285Z,96555.75
2023-08-07T05:10:27.043Z,96555.75
2023-08-07T05:12:56.475Z,96556.16
2023-08-07T05:15:24.669Z,96554.09
2023-08-07T05:17:52.813Z,96560.13
2023-08-07T05:20:20.543Z,96539.22
2023-08-07T05:22:49.796Z,96552.13
2023-08-07T05:25:18.109Z,96560.56
2023-08-07T05:27:46.412Z,96560.56
2023-08-07T05:30:15.066Z,96570.22
2023-08-07T05:32:42.952Z,96575.84
2023-08-07T05:35:11.527Z,96570.28
2023-08-07T05:37:39.130Z,96576.31
2023-08-07T05:40:09.323Z,96578.13
2023-08-07T05:42:36.901Z,96576.13
2023-08-07T05:45:05.078Z,96573.50
2023-08-07T05:47:34.694Z,96590.00
2023-08-07T05:50:03.000Z,96586.38
2023-08-07T05:52:30.584Z,96578.16
2023-08-07T05:54:58.139Z,96587.25
2023-08-07T05:57:27.081Z,96586.06
2023-08-07T05:59:54.703Z,96592.09
2023-08-07T06:02:22.320Z,96589.66
2023-08-07T06:04:50.011Z,96590.44
2023-08-07T06:07:17.860Z,96609.00
2023-08-07T06:09:45.466Z,96594.94
2023-08-07T06:12:13.317Z,96598.72
2023-08-07T06:14:42.241Z,96594.88
2023-08-07T06:17:09.792Z,96596.88
2023-08-07T06:19:37.406Z,96596.88
2023-08-07T06:22:05.359Z,96609.75
2023-08-07T06:24:32.964Z,96604.53
2023-08-07T06:27:00.723Z,96608.56
2023-08-07T06:29:28.326Z,96611.06
2023-08-07T06:31:57.622Z,96617.97
2023-08-07T06:34:25.509Z,96614.97
2023-08-07T06:36:53.081Z,96626.06
2023-08-07T06:39:20.681Z,96618.84
2023-08-07T06:41:48.201Z,96620.44
2023-08-07T06:44:15.828Z,96622.44
2023-08-07T06:46:43.399Z,96626.06
2023-08-07T06:49:12.311Z,96625.44
2023-08-07T06:51:39.865Z,96630.50
2023-08-07T06:54:07.447Z,96630.28
2023-08-07T06:56:34.997Z,96628.28
2023-08-07T06:59:02.625Z,96621.69
2023-08-07T07:01:30.274Z,96629.97
2023-08-07T07:03:57.959Z,96636.63
2023-08-07T07:06:27.626Z,96642.81
2023-08-07T07:08:56.010Z,96640.84
2023-08-07T07:11:25.417Z,96635.88
2023-08-07T07:13:53.229Z,96649.78
2023-08-07T07:16:22.564Z,96640.56
2023-08-07T07:18:51.887Z,96649.22
2023-08-07T07:21:19.614Z,96638.34
2023-08-07T07:23:48.514Z,96646.44
2023-08-07T07:26:16.417Z,96652.09
2023-08-07T07:28:43.990Z,96642.84
2023-08-07T07:31:12.733Z,96641.47
2023-08-07T07:33:42.364Z,96648.38
2023-08-07T07:36:16.816Z,96643.97
2023-08-07T07:38:47.245Z,96658.50
2023-08-07T07:41:16.554Z,96663.53
2023-08-07T07:43:44.430Z,96660.34
2023-08-07T07:46:12.375Z,96668.22
2023-08-07T07:48:40.038Z,96656.97
2023-08-07T07:51:07.669Z,96665.47
2023-08-07T07:53:35.317Z,96666.91
2023-08-07T07:56:02.892Z,96659.28
2023-08-07T07:58:31.801Z,96668.97
2023-08-07T08:00:59.389Z,96657.72
2023-08-07T08:03:27.304Z,96671.03
2023-08-07T08:05:55.344Z,96670.84
2023-08-07T08:08:23.082Z,96679.09
2023-08-07T08:10:52.215Z,96681.09
2023-08-07T08:13:20.269Z,96685.50
2023-08-07T08:15:49.320Z,96681.09
2023-08-07T08:18:17.022Z,96694.38
2023-08-07T08:20:44.834Z,96706.06
2023-08-07T08:23:12.505Z,96694.56
2023-08-07T08:25:40.207Z,96712.06
2023-08-07T08:28:08.021Z,96709.03
2023-08-07T08:30:35.678Z,96714.50
2023-08-07T08:33:06.610Z,96719.75
2023-08-07T08:35:34.537Z,96717.13
2023-08-07T08:38:02.527Z,96715.31
2023-08-07T08:40:31.004Z,96723.97
2023-08-07T08:42:59.152Z,96721.97
2023-08-07T08:45:28.285Z,96735.88
2023-08-07T08:48:00.067Z,96746.34
2023-08-07T08:50:30.508Z,96731.84
2023-08-07T08:52:58.912Z,96733.03
2023-08-07T08:55:28.639Z,96744.53
2023-08-07T08:57:56.554Z,96742.72
2023-08-07T09:00:26.938Z,96737.47
2023-08-07T09:02:54.773Z,96731.03
2023-08-07T09:05:22.906Z,96738.31
2023-08-07T09:07:52.279Z,96752.41
2023-08-07T09:10:20.477Z,96746.34
2023-08-07T09:12:56.273Z,96741.94
2023-08-07T09:15:26.869Z,96744.34
2023-08-07T09:17:56.913Z,96746.59
2023-08-07T09:20:24.787Z,96740.41
2023-08-07T09:22:53.895Z,96738.81
2023-08-07T09:25:29.627Z,96742.06
2023-08-07T09:27:57.895Z,96744.53
2023-08-07T09:30:30.113Z,96749.81
2023-08-07T09:32:58.809Z,96750.63
2023-08-07T09:35:26.773Z,96752.03
2023-08-07T09:37:55.824Z,96760.94
2023-08-07T09:40:24.497Z,96767.59
2023-08-07T09:42:53.960Z,96764.38
2023-08-07T09:45:22.610Z,96777.28
2023-08-07T09:47:59.759Z,96774.25
2023-08-07T09:50:28.173Z,96777.91
2023-08-07T09:52:58.982Z,96776.88
2023-08-07T09:55:27.349Z,96776.47
2023-08-07T09:57:55.413Z,96770.84
2023-08-07T10:00:24.128Z,96770.44
2023-08-07T10:02:53.175Z,96778.72
2023-08-07T10:05:20.986Z,96769.06
2023-08-07T10:07:50.394Z,96767.66
2023-08-07T10:10:19.535Z,96766.44
2023-08-07T10:12:48.990Z,96778.75
2023-08-07T10:15:17.509Z,96788.22
2023-08-07T10:17:45.537Z,96783.19
2023-08-07T10:20:14.114Z,96776.72
2023-08-07T10:22:44.797Z,96772.44
2023-08-07T10:25:12.523Z,96779.34
2023-08-07T10:27:44.829Z,96778.91
2023-08-07T10:30:16.178Z,96777.72
2023-08-07T10:32:45.477Z,96774.91
2023-08-07T10:35:25.615Z,96773.09
2023-08-07T10:37:55.311Z,96770.53
2023-08-07T10:40:23.698Z,96768.53
2023-08-07T10:42:58.726Z,96777.38
2023-08-07T10:45:27.538Z,96762.66
2023-08-07T10:48:07.566Z,96761.03
2023-08-07T10:50:37.242Z,96778.41
2023-08-07T10:53:06.047Z,96766.88
2023-08-07T10:55:45.518Z,96758.81
2023-08-07T10:58:25.566Z,96769.72
2023-08-07T11:00:54.423Z,96764.06
2023-08-07T11:03:28.113Z,96770.09
2023-08-07T11:05:56.245Z,96772.91
2023-08-07T11:08:25.467Z,96772.25
2023-08-07T11:10:53.595Z,96769.53
2023-08-07T11:13:21.367Z,96769.09
2023-08-07T11:15:51.554Z,96772.09
2023-08-07T11:18:20.390Z,96769.69
2023-08-07T11:20:49.090Z,96762.59
2023-08-07T11:23:16.809Z,96770.25
2023-08-07T11:25:44.578Z,96767.84
2023-08-07T11:28:12.384Z,96780.78
2023-08-07T11:30:40.134Z,96771.28
2023-08-07T11:33:09.723Z,96779.56
2023-08-07T11:35:37.562Z,96775.88
2023-08-07T11:38:05.458Z,96755.38
2023-08-07T11:40:33.052Z,96768.09
2023-08-07T11:43:00.744Z,96776.69
2023-08-07T11:45:28.851Z,96780.47
2023-08-07T11:47:57.792Z,96776.16
2023-08-07T11:50:27.070Z,96773.13
2023-08-07T11:52:54.832Z,96783.22
2023-08-07T11:55:22.582Z,96780.75
2023-08-07T11:57:50.325Z,96782.31
2023-08-07T12:00:18.736Z,96786.13
2023-08-07T12:02:46.745Z,96796.28
2023-08-07T12:05:14.523Z,96803.47
2023-08-07T12:07:43.877Z,96803.16
2023-08-07T12:10:12.965Z,96810.38
2023-08-07T12:12:41.128Z,96814.69
2023-08-07T12:15:10.484Z,96823.41
2023-08-07T12:17:38.727Z,96812.72
2023-08-07T12:20:11.445Z,96823.25
2023-08-07T12:22:39.332Z,96819.63
2023-08-07T12:25:09.235Z,96824.25
2023-08-07T12:27:37.007Z,96817.59
2023-08-07T12:30:04.904Z,96830.34
2023-08-07T12:32:32.617Z,96833.59
2023-08-07T12:37:30.962Z,96836.25
2023-08-07T12:40:36.380Z,96835.06
2023-08-07T12:42:47.514Z,96829.03
2023-08-07T12:45:17.469Z,96838.53
2023-08-07T12:47:45.370Z,96843.59
2023-08-07T12:50:13.736Z,96860.19
2023-08-07T12:52:41.430Z,96859.78
2023-08-07T12:55:10.793Z,96859.97
2023-08-07T12:57:38.431Z,96858.56
2023-08-07T13:00:09.316Z,96859.78
2023-08-07T13:02:37.000Z,96855.75
2023-08-07T13:05:04.952Z,96861.41
2023-08-07T13:07:32.731Z,96858.78
2023-08-07T13:10:00.378Z,96859.00
2023-08-07T13:12:28.002Z,96862.63
2023-08-07T13:14:56.039Z,96862.63
2023-08-07T13:17:25.140Z,96865.84
2023-08-07T13:19:52.765Z,96871.91
2023-08-07T13:22:20.514Z,96870.72
2023-08-07T13:24:48.798Z,96873.13
2023-08-07T13:27:16.520Z,96867.06
2023-08-07T13:29:44.262Z,96886.50
2023-08-07T13:32:12.074Z,96886.06
2023-08-07T13:34:41.518Z,96889.31
2023-08-07T13:37:09.186Z,96891.31
2023-08-07T13:39:36.956Z,96890.53
2023-08-07T13:42:04.891Z,96901.22
2023-08-07T13:44:32.516Z,96887.47
2023-08-07T13:47:00.156Z,96902.63
2023-08-07T13:49:27.998Z,96910.72
2023-08-07T13:51:58.490Z,96915.38
2023-08-07T13:54:26.417Z,96921.22
2023-08-07T13:56:54.102Z,96920.41
2023-08-07T13:59:21.815Z,96927.06
2023-08-07T14:01:49.484Z,96926.66
2023-08-07T14:04:17.480Z,96929.28
2023-08-07T14:06:45.564Z,96932.09
2023-08-07T14:09:15.096Z,96930.03
2023-08-07T14:11:42.848Z,96934.44
2023-08-07T14:14:10.553Z,96929.59
2023-08-07T14:16:40.124Z,96931.44
2023-08-07T14:19:08.085Z,96930.00
2023-08-07T14:21:35.709Z,96929.19
2023-08-07T14:24:03.272Z,96918.50
2023-08-07T14:26:32.161Z,96926.00
2023-08-07T14:28:59.703Z,96919.16
2023-08-07T14:31:27.304Z,96913.91
2023-08-07T14:33:55.327Z,96920.38
2023-08-07T14:36:23.136Z,96919.41
2023-08-07T14:38:50.761Z,96917.41
2023-08-07T14:41:19.392Z,96915.56
2023-08-07T14:43:49.017Z,96909.09
2023-08-07T14:46:18.670Z,96913.16
2023-08-07T14:48:47.792Z,96899.81
2023-08-07T14:51:15.746Z,96898.59
2023-08-07T14:53:43.363Z,96899.59
2023-08-07T14:56:10.943Z,96891.50
2023-08-07T14:58:38.674Z,96888.88
2023-08-07T15:01:07.609Z,96896.34
2023-08-07T15:03:35.239Z,96895.72
2023-08-07T15:06:02.899Z,96895.13
2023-08-07T15:08:30.508Z,96892.50
2023-08-07T15:10:58.110Z,96891.06
2023-08-07T15:13:26.170Z,96887.63
2023-08-07T15:15:53.848Z,96894.88
2023-08-07T15:18:24.986Z,96893.28
2023-08-07T15:20:52.568Z,96883.56
2023-08-07T15:23:20.341Z,96881.91
2023-08-07T15:25:47.937Z,96882.91
2023-08-07T15:28:15.515Z,96887.34
2023-08-07T15:30:50.090Z,96879.63
2023-08-07T15:33:18.114Z,96887.13
2023-08-07T15:35:47.150Z,96883.25
2023-08-07T15:38:14.926Z,96878.78
2023-08-07T15:40:43.293Z,96886.84
2023-08-07T15:43:11.979Z,96879.75
2023-08-07T15:45:39.801Z,96880.53
2023-08-07T15:48:08.189Z,96884.16
2023-08-07T15:50:39.316Z,96884.59
2023-08-07T15:53:08.303Z,96879.75
2023-08-07T15:55:36.980Z,96882.00
2023-08-07T15:58:06.099Z,96889.88
2023-08-07T16:00:35.840Z,96881.78
2023-08-07T16:03:05.685Z,96886.47
2023-08-07T16:05:33.757Z,96887.84
2023-08-07T16:08:01.707Z,96892.94
2023-08-07T16:10:31.018Z,96885.81
2023-08-07T16:12:58.682Z,96880.97
2023-08-07T16:15:27.051Z,96891.72
2023-08-07T16:17:55.081Z,96884.22
2023-08-07T16:20:22.971Z,96890.72
2023-08-07T16:22:51.868Z,96899.25
2023-08-07T16:25:19.593Z,96905.34
2023-08-07T16:27:50.258Z,96910.78
2023-08-07T16:30:18.328Z,96908.78
2023-08-07T16:32:46.086Z,96905.19
2023-08-07T16:35:14.050Z,96911.06
2023-08-07T16:37:43.032Z,96913.09
2023-08-07T16:40:11.389Z,96907.84
2023-08-07T16:42:39.007Z,96900.94
2023-08-07T16:45:09.009Z,96892.66
2023-08-07T16:47:36.637Z,96898.91
2023-08-07T16:50:04.743Z,96891.81
2023-08-07T16:52:32.338Z,96895.09
2023-08-07T16:54:59.894Z,96894.09
2023-08-07T16:57:27.528Z,96886.78
2023-08-07T16:59:55.132Z,96892.44
2023-08-07T17:02:25.562Z,96889.63
2023-08-07T17:04:53.234Z,96886.81
2023-08-07T17:07:21.159Z,96881.94
2023-08-07T17:09:48.919Z,96884.56
2023-08-07T17:12:16.550Z,96879.72
2023-08-07T17:14:44.129Z,96875.66
2023-08-07T17:17:12.138Z,96876.88
2023-08-07T17:19:41.108Z,96879.69
2023-08-07T17:22:08.703Z,96881.09
2023-08-07T17:24:36.323Z,96874.25
2023-08-07T17:27:04.093Z,96879.50
2023-08-07T17:29:31.759Z,96881.09
2023-08-07T17:32:00.342Z,96879.06
2023-08-07T17:34:28.046Z,96875.44
2023-08-07T17:36:57.242Z,96889.19
2023-08-07T17:39:24.953Z,96886.78
2023-08-07T17:41:52.522Z,96884.16
2023-08-07T17:44:20.118Z,96889.19
2023-08-07T17:46:47.756Z,96897.66
2023-08-07T17:49:15.461Z,96897.91
2023-08-07T17:51:43.094Z,96882.75
2023-08-07T17:54:12.053Z,96889.00
2023-08-07T17:56:39.818Z,96887.41
2023-08-07T17:59:07.478Z,96887.19
2023-08-07T18:01:35.120Z,96888.38
2023-08-07T18:04:02.855Z,96894.44
2023-08-07T18:06:30.923Z,96889.63
2023-08-07T18:08:59.428Z,96899.72
2023-08-07T18:11:28.602Z,96900.16
2023-08-07T18:13:56.372Z,96901.38
2023-08-07T18:16:26.286Z,96902.97
2023-08-07T18:18:54.695Z,96906.81
2023-08-07T18:21:22.266Z,96907.03
2023-08-07T18:23:51.104Z,96912.09
2023-08-07T18:26:18.628Z,96907.03
2023-08-07T18:28:47.555Z,96904.03
2023-08-07T18:31:15.294Z,96907.88
2023-08-07T18:33:43.039Z,96903.81
2023-08-07T18:36:10.662Z,96908.66
2023-08-07T18:38:38.250Z,96905.81
2023-08-07T18:41:07.392Z,96898.97
2023-08-07T18:43:35.041Z,96907.03
2023-08-07T18:46:04.167Z,96917.19
2023-08-07T18:48:31.830Z,96920.81
2023-08-07T18:50:59.519Z,96921.03
2023-08-07T18:53:27.159Z,96914.94
2023-08-07T18:55:54.738Z,96918.78
2023-08-07T18:58:22.290Z,96922.44
2023-08-07T19:00:49.887Z,96929.50
2023-08-07T19:03:20.898Z,96927.91
2023-08-07T19:05:48.879Z,96925.25
2023-08-07T19:08:16.750Z,96924.06
2023-08-07T19:10:45.915Z,96929.72
2023-08-07T19:13:13.671Z,96926.50
2023-08-07T19:15:41.212Z,96933.78
2023-08-07T19:18:08.815Z,96934.16
2023-08-07T19:20:37.746Z,96940.25
2023-08-07T19:23:05.892Z,96934.38
2023-08-07T19:25:33.653Z,96937.41
2023-08-07T19:28:01.192Z,96947.53
2023-08-07T19:30:31.663Z,96938.41
2023-08-07T19:32:59.633Z,96947.91
2023-08-07T19:35:27.287Z,96937.19
2023-08-07T19:37:56.184Z,96940.81
2023-08-07T19:40:25.858Z,96947.06
2023-08-07T19:42:53.813Z,96942.81
2023-08-07T19:45:22.103Z,96947.44
2023-08-07T19:47:49.830Z,96944.38
2023-08-07T19:50:17.819Z,96940.69
2023-08-07T19:52:45.421Z,96935.59
2023-08-07T19:55:16.333Z,96936.19
2023-08-07T19:57:44.060Z,96938.34
2023-08-07T20:00:13.188Z,96942.75
2023-08-07T20:02:41.850Z,96941.13
2023-08-07T20:05:10.280Z,96940.88
2023-08-07T20:07:37.863Z,96942.06
2023-08-07T20:10:10.719Z,96941.25
2023-08-07T20:12:40.927Z,96935.38
2023-08-07T20:15:09.514Z,96934.16
2023-08-07T20:17:37.245Z,96939.78
2023-08-07T20:20:05.864Z,96943.38
2023-08-07T20:22:33.462Z,96937.53
2023-08-07T20:25:01.131Z,96938.91
2023-08-07T20:27:28.726Z,96948.16
2023-08-07T20:29:57.665Z,96946.56
2023-08-07T20:32:25.429Z,96943.13
2023-08-07T20:34:53.041Z,96939.69
2023-08-07T20:37:20.670Z,96942.50
2023-08-07T20:39:48.264Z,96936.81
2023-08-07T20:42:15.911Z,96938.22
2023-08-07T20:44:43.567Z,96939.22
2023-08-07T20:47:12.502Z,96942.84
2023-08-07T20:49:40.094Z,96939.22
2023-08-07T20:52:08.306Z,96938.59
2023-08-07T20:54:35.945Z,96942.44
2023-08-07T20:57:03.540Z,96936.97
2023-08-07T20:59:31.188Z,96936.34
2023-08-07T21:01:59.096Z,96935.94
2023-08-07T21:04:28.495Z,96938.13
2023-08-07T21:06:56.122Z,96937.50
2023-08-07T21:09:23.788Z,96931.47
2023-08-07T21:11:51.519Z,96922.97
2023-08-07T21:14:19.286Z,96919.72
2023-08-07T21:16:46.914Z,96920.91
2023-08-07T21:19:14.547Z,96911.81
2023-08-07T21:21:43.541Z,96916.81
2023-08-07T21:24:12.997Z,96906.34
2023-08-07T21:26:41.602Z,96913.56
2023-08-07T21:29:09.413Z,96912.69
2023-08-07T21:31:37.395Z,96901.34
2023-08-07T21:34:05.006Z,96900.94
2023-08-07T21:36:32.600Z,96907.16
2023-08-07T21:39:01.700Z,96910.78
2023-08-07T21:41:29.315Z,96909.78
2023-08-07T21:43:56.883Z,96911.78
2023-08-07T21:46:25.165Z,96909.72
2023-08-07T21:48:52.974Z,96904.66
2023-08-07T21:51:20.604Z,96903.25
2023-08-07T21:53:48.253Z,96900.00
2023-08-07T21:56:17.782Z,96902.44
2023-08-07T21:58:45.344Z,96906.03
2023-08-07T22:01:13.015Z,96905.69
2023-08-07T22:03:40.668Z,96909.53
2023-08-07T22:06:08.441Z,96903.47
2023-08-07T22:08:36.079Z,96904.66
2023-08-07T22:11:04.117Z,96897.19
2023-08-07T22:13:33.152Z,96911.66
2023-08-07T22:16:01.054Z,96899.31
2023-08-07T22:18:28.732Z,96900.69
2023-08-07T22:20:56.317Z,96898.63
2023-08-07T22:23:23.980Z,96897.38
2023-08-07T22:25:52.847Z,96899.75
2023-08-07T22:28:22.032Z,96900.31
2023-08-07T22:30:51.419Z,96899.69
2023-08-07T22:33:19.108Z,96912.97
2023-08-07T22:35:46.788Z,96902.88
2023-08-07T22:38:14.391Z,96899.63
2023-08-07T22:40:42.058Z,96917.31
2023-08-07T22:43:11.690Z,96906.59
2023-08-07T22:45:40.675Z,96903.16
2023-08-07T22:48:09.879Z,96910.19
2023-08-07T22:50:37.475Z,96906.97
2023-08-07T22:53:05.468Z,96906.34
2023-08-07T22:55:33.261Z,96906.34
2023-08-07T22:58:00.965Z,96900.28
2023-08-07T23:00:28.623Z,96911.56
2023-08-07T23:02:57.040Z,96907.97
2023-08-07T23:05:26.091Z,96901.09
2023-08-07T23:07:53.697Z,96897.31
2023-08-07T23:10:21.338Z,96900.53
2023-08-07T23:12:48.882Z,96891.88
2023-08-07T23:15:16.452Z,96894.69
2023-08-07T23:17:44.095Z,96887.03
2023-08-07T23:20:12.462Z,96887.22
2023-08-07T23:22:41.446Z,96888.41
2023-08-07T23:25:09.935Z,96890.41
2023-08-07T23:27:37.690Z,96884.53
2023-08-07T23:30:07.198Z,96886.53
2023-08-07T23:32:34.856Z,96889.13
2023-08-07T23:35:02.469Z,96879.69
2023-08-07T23:37:30.146Z,96881.69
2023-08-07T23:39:59.063Z,96879.88
2023-08-07T23:42:26.729Z,96877.25
2023-08-07T23:44:54.404Z,96858.31
2023-08-07T23:47:22.163Z,96870.22
2023-08-07T23:49:49.775Z,96862.97
2023-08-07T23:52:17.402Z,96867.25
2023-08-07T23:54:44.979Z,96861.00
2023-08-07T23:57:13.980Z,96865.66
2023-08-07T23:59:41.630Z,96868.53
